Time;durP1;ratioP1;P1;durP2;ratioP2;P2;SDS_P1;SDS_P2;PMS_P1;PMS_P2;Temp;Humidity;BMP_temperature;BMP_pressure;BME280_temperature;BME280_humidity;BME280_pressure;Samples;Min_cycle;Max_cycle;Signal;HPM_P1;HPM_P2
2023/03/01 00:01:37;;;;;;;33.97;30.50;;;-3.00;99.90;;;;;;5004369;28;20045;-72
2023/03/01 00:04:04;;;;;;;32.83;29.48;;;-3.10;99.90;;;;;;5009563;28;20049;-72
2023/03/01 00:06:31;;;;;;;34.95;31.35;;;-3.20;99.90;;;;;;5014517;28;20052;-72
2023/03/01 00:08:58;;;;;;;34.67;31.02;;;-3.30;99.90;;;;;;5012306;28;20041;-72
2023/03/01 00:11:28;;;;;;;34.35;30.75;;;-3.40;99.90;;;;;;5010970;28;20042;-72
2023/03/01 00:13:58;;;;;;;34.70;31.20;;;-3.40;99.90;;;;;;4996503;28;20103;-71
2023/03/01 00:16:46;;;;;;;33.85;30.33;;;-3.50;99.90;;;;;;5013355;28;20072;-71
2023/03/01 00:19:16;;;;;;;30.40;27.23;;;-3.50;99.90;;;;;;5015887;28;20531;-71
2023/03/01 00:21:43;;;;;;;30.42;27.48;;;-3.30;99.90;;;;;;5014641;28;20136;-71
2023/03/01 00:24:11;;;;;;;29.30;26.30;;;-3.10;99.90;;;;;;4996988;28;20041;-72
2023/03/01 00:26:37;;;;;;;30.10;27.45;;;-2.80;99.90;;;;;;5019303;28;20431;-71
2023/03/01 00:29:04;;;;;;;29.92;27.23;;;-2.60;99.90;;;;;;5000741;28;20046;-72
2023/03/01 00:31:32;;;;;;;31.13;27.90;;;-2.50;99.90;;;;;;5014048;28;20048;-71
2023/03/01 00:34:03;;;;;;;30.80;27.73;;;-2.40;99.90;;;;;;4996554;28;20156;-72
2023/03/01 00:36:33;;;;;;;34.17;30.55;;;-2.50;99.90;;;;;;4998350;28;20056;-73
2023/03/01 00:39:01;;;;;;;33.97;30.40;;;-2.70;99.90;;;;;;5012776;28;20095;-73
2023/03/01 00:41:27;;;;;;;45.92;33.47;;;-2.90;99.90;;;;;;4994349;28;20056;-71
2023/03/01 00:43:55;;;;;;;43.47;35.03;;;-3.10;99.90;;;;;;5011334;28;20533;-71
2023/03/01 00:46:24;;;;;;;43.60;34.00;;;-3.30;99.90;;;;;;5013493;28;20388;-70
2023/03/01 00:48:51;;;;;;;41.53;34.10;;;-3.50;99.90;;;;;;4995012;28;20048;-72
2023/03/01 00:51:20;;;;;;;37.80;32.67;;;-3.70;99.90;;;;;;5014027;28;20448;-71
2023/03/01 00:53:49;;;;;;;33.58;30.15;;;-3.60;99.90;;;;;;5008405;28;20041;-72
2023/03/01 00:56:16;;;;;;;30.45;27.63;;;-3.40;99.90;;;;;;4978685;28;20041;-73
2023/03/01 00:58:43;;;;;;;30.40;27.45;;;-3.30;99.90;;;;;;5014346;28;20049;-73
2023/03/01 01:01:19;;;;;;;31.90;28.55;;;-3.10;99.90;;;;;;4993413;28;20052;-72
2023/03/01 01:03:47;;;;;;;32.47;29.05;;;-3.00;99.90;;;;;;5012951;28;20045;-69
2023/03/01 01:06:22;;;;;;;30.60;27.67;;;-3.10;99.90;;;;;;4978853;28;20485;-70
2023/03/01 01:08:49;;;;;;;31.20;28.08;;;-3.20;99.90;;;;;;4991122;28;20281;-70
2023/03/01 01:11:16;;;;;;;50.08;34.83;;;-3.20;99.90;;;;;;5009884;28;20036;-71
2023/03/01 01:13:45;;;;;;;86.43;49.30;;;-3.40;99.90;;;;;;5012901;28;20104;-72
2023/03/01 01:16:13;;;;;;;102.63;56.75;;;-3.60;99.90;;;;;;5000756;28;20087;-70
2023/03/01 01:18:40;;;;;;;107.03;56.47;;;-3.70;99.90;;;;;;5013393;28;20258;-71
2023/03/01 01:21:11;;;;;;;95.25;50.58;;;-3.90;99.90;;;;;;4992600;28;20179;-72
2023/03/01 01:23:39;;;;;;;86.28;49.15;;;-4.00;99.90;;;;;;5009563;28;20058;-69
2023/03/01 01:26:09;;;;;;;84.93;50.03;;;-4.10;99.90;;;;;;4994911;28;20434;-70
2023/03/01 01:28:36;;;;;;;67.18;42.60;;;-4.20;99.90;;;;;;4992249;28;20052;-71
2023/03/01 01:31:04;;;;;;;60.22;38.65;;;-4.20;99.90;;;;;;5010469;28;20043;-71
2023/03/01 01:33:31;;;;;;;51.30;36.67;;;-4.30;99.90;;;;;;5013289;28;20025;-71
2023/03/01 01:35:58;;;;;;;43.47;35.50;;;-4.30;99.90;;;;;;4991128;28;20519;-71
2023/03/01 01:38:25;;;;;;;39.92;32.33;;;-4.40;99.90;;;;;;5011430;28;20033;-72
2023/03/01 01:40:52;;;;;;;35.92;29.50;;;-4.40;99.90;;;;;;4991438;28;20048;-72
2023/03/01 01:43:32;;;;;;;35.70;29.35;;;-4.50;99.90;;;;;;4997637;28;20045;-72
2023/03/01 01:46:04;;;;;;;40.28;30.38;;;-4.60;99.90;;;;;;5011475;28;20049;-71
2023/03/01 01:48:46;;;;;;;36.85;28.80;;;-4.60;99.90;;;;;;5013904;28;20038;-73
2023/03/01 01:51:19;;;;;;;38.20;27.48;;;-4.40;99.90;;;;;;5010144;28;20045;-72
2023/03/01 01:53:50;;;;;;;32.95;26.73;;;-4.30;99.90;;;;;;5009051;28;20061;-70
2023/03/01 01:56:18;;;;;;;32.55;27.13;;;-4.30;99.90;;;;;;5012815;28;20519;-71
2023/03/01 01:58:47;;;;;;;30.90;26.42;;;-4.30;99.90;;;;;;5014296;28;20041;-72
2023/03/01 02:01:14;;;;;;;32.33;26.60;;;-4.30;99.90;;;;;;4982012;28;20522;-72
2023/03/01 02:03:44;;;;;;;34.33;26.42;;;-4.40;99.90;;;;;;4998575;28;20048;-72
2023/03/01 02:06:20;;;;;;;31.42;25.67;;;-4.50;99.90;;;;;;4991587;28;20511;-73
2023/03/01 02:08:49;;;;;;;35.13;28.02;;;-4.60;99.90;;;;;;5005006;28;20337;-72
2023/03/01 02:11:18;;;;;;;29.30;26.20;;;-4.50;99.90;;;;;;4991721;28;20077;-72
2023/03/01 02:13:48;;;;;;;31.17;26.55;;;-4.60;99.90;;;;;;5007064;28;20041;-69
2023/03/01 02:16:16;;;;;;;35.50;27.30;;;-4.80;99.90;;;;;;5007508;28;20069;-73
2023/03/01 02:18:44;;;;;;;32.78;26.05;;;-4.80;99.90;;;;;;5006819;28;20373;-73
2023/03/01 02:21:30;;;;;;;30.35;26.42;;;-4.90;99.90;;;;;;4995606;28;20049;-70
2023/03/01 02:24:00;;;;;;;34.65;26.95;;;-4.90;99.90;;;;;;5012175;28;20296;-70
2023/03/01 02:26:33;;;;;;;32.28;27.45;;;-4.90;99.90;;;;;;4992801;28;20041;-71
2023/03/01 02:29:00;;;;;;;30.60;26.13;;;-5.00;99.90;;;;;;5009441;28;20037;-69
2023/03/01 02:31:41;;;;;;;32.40;25.33;;;-5.00;99.90;;;;;;4993859;28;20041;-70
2023/03/01 02:34:18;;;;;;;27.52;24.38;;;-4.90;99.90;;;;;;5013257;28;20137;-69
2023/03/01 02:37:04;;;;;;;28.73;25.65;;;-4.70;99.90;;;;;;4989978;28;20523;-72
2023/03/01 02:39:41;;;;;;;27.73;24.02;;;-4.40;99.90;;;;;;5009824;28;20108;-72
2023/03/01 02:42:12;;;;;;;29.77;24.45;;;-3.90;99.90;;;;;;5009782;28;20042;-70
2023/03/01 02:44:39;;;;;;;29.60;25.23;;;-3.50;99.90;;;;;;5009719;28;20056;-71
2023/03/01 02:47:06;;;;;;;27.45;24.55;;;-3.80;99.90;;;;;;5012144;28;20894;-71
2023/03/01 02:49:36;;;;;;;28.50;25.70;;;-4.00;99.90;;;;;;4993677;28;20040;-69
2023/03/01 02:52:26;;;;;;;29.38;26.23;;;-4.20;99.90;;;;;;4991572;28;20046;-71
2023/03/01 02:55:08;;;;;;;30.23;26.95;;;-4.40;99.90;;;;;;5010389;28;20132;-70
2023/03/01 02:57:39;;;;;;;32.13;26.00;;;-4.40;99.90;;;;;;5011776;28;20067;-71
2023/03/01 03:00:19;;;;;;;27.35;24.48;;;-4.30;99.90;;;;;;5016986;28;20871;-70
2023/03/01 03:02:48;;;;;;;28.65;25.42;;;-4.10;99.90;;;;;;4996231;28;20388;-71
2023/03/01 03:05:22;;;;;;;28.80;26.00;;;-3.80;99.90;;;;;;4993952;28;20048;-71
2023/03/01 03:07:52;;;;;;;;;;;-4.00;99.90;;;;;;4995603;28;20041;-72
2023/03/01 03:10:40;;;;;;;28.65;26.00;;;-4.10;99.90;;;;;;4999003;28;20315;-71
2023/03/01 03:13:10;;;;;;;29.10;26.15;;;-4.30;99.90;;;;;;5018303;28;20136;-72
2023/03/01 03:15:38;;;;;;;29.48;26.48;;;-4.60;99.90;;;;;;4998203;28;20417;-73
2023/03/01 03:18:09;;;;;;;29.67;26.90;;;-4.80;99.90;;;;;;5022503;28;20033;-73
2023/03/01 03:20:37;;;;;;;32.22;27.35;;;-4.80;99.90;;;;;;5017902;28;20044;-72
2023/03/01 03:23:04;;;;;;;31.90;27.98;;;-4.90;99.90;;;;;;5003221;28;20045;-71
2023/03/01 03:25:30;;;;;;;29.95;26.77;;;-5.00;99.90;;;;;;5020815;28;20061;-73
2023/03/01 03:27:58;;;;;;;30.45;27.02;;;-5.00;99.90;;;;;;5011176;28;20139;-71
2023/03/01 03:30:28;;;;;;;31.10;26.42;;;-4.90;99.90;;;;;;5013365;28;20049;-71
2023/03/01 03:32:56;;;;;;;28.48;25.33;;;-5.00;99.90;;;;;;5010992;28;20068;-71
2023/03/01 03:35:41;;;;;;;30.83;25.50;;;-5.00;99.90;;;;;;5014491;28;20408;-72
2023/03/01 03:38:15;;;;;;;34.90;26.60;;;-5.00;99.90;;;;;;5011469;28;20198;-72
2023/03/01 03:40:48;;;;;;;28.02;25.15;;;-5.10;99.90;;;;;;5012051;28;20077;-72
2023/03/01 03:43:17;;;;;;;29.85;24.35;;;-5.20;99.90;;;;;;5015077;28;20064;-71
2023/03/01 03:45:45;;;;;;;26.63;24.00;;;-5.10;99.90;;;;;;5011768;28;20045;-71
2023/03/01 03:48:13;;;;;;;28.30;25.15;;;-5.20;99.90;;;;;;5009397;28;20026;-72
2023/03/01 03:50:40;;;;;;;31.27;25.27;;;-5.20;99.90;;;;;;5012796;28;20518;-70
2023/03/01 03:53:10;;;;;;;30.00;26.27;;;-5.30;99.90;;;;;;5013421;28;20041;-72
2023/03/01 03:55:38;;;;;;;33.90;25.48;;;-5.30;99.90;;;;;;4980592;28;20661;-71
2023/03/01 03:58:08;;;;;;;30.92;25.25;;;-5.30;99.90;;;;;;4998011;28;20127;-71
2023/03/01 04:00:40;;;;;;;32.40;25.65;;;-5.40;99.90;;;;;;5012927;28;20048;-70
2023/03/01 04:03:08;;;;;;;33.28;26.05;;;-5.40;99.90;;;;;;5013263;28;20112;-70
2023/03/01 04:05:36;;;;;;;29.27;25.13;;;-5.30;99.90;;;;;;4999584;28;20034;-72
2023/03/01 04:08:06;;;;;;;27.98;23.88;;;-5.30;99.90;;;;;;5012011;28;20038;-71
2023/03/01 04:10:37;;;;;;;33.45;25.65;;;-5.30;99.90;;;;;;5012132;28;20466;-72
2023/03/01 04:13:04;;;;;;;30.00;24.60;;;-5.10;99.90;;;;;;5016183;28;20423;-70
2023/03/01 04:15:32;;;;;;;29.52;23.20;;;-4.70;99.90;;;;;;5004853;28;20057;-70
2023/03/01 04:18:00;;;;;;;25.10;22.50;;;-4.10;99.90;;;;;;4999040;28;20866;-71
2023/03/01 04:20:29;;;;;;;27.50;23.05;;;-3.80;99.90;;;;;;5009823;28;20048;-70
2023/03/01 04:23:10;;;;;;;27.23;24.00;;;-4.00;99.90;;;;;;5009763;28;20045;-71
2023/03/01 04:26:00;;;;;;;26.98;24.00;;;-4.10;99.90;;;;;;5008379;28;20547;-70
2023/03/01 04:28:36;;;;;;;33.47;25.67;;;-4.00;99.90;;;;;;4986977;28;20042;-71
2023/03/01 04:31:16;;;;;;;27.88;24.98;;;-3.80;99.90;;;;;;4986522;28;20038;-71
2023/03/01 04:33:46;;;;;;;29.70;26.15;;;-3.90;99.90;;;;;;4995143;28;20111;-71
2023/03/01 04:36:15;;;;;;;28.40;25.63;;;-3.80;99.90;;;;;;4991270;28;20038;-71
2023/03/01 04:38:47;;;;;;;29.33;26.40;;;-3.90;99.90;;;;;;5004752;28;20049;-70
2023/03/01 04:41:16;;;;;;;30.05;26.00;;;-4.00;99.90;;;;;;4973423;28;20046;-72
2023/03/01 04:43:44;;;;;;;29.42;26.35;;;-4.20;99.90;;;;;;5004387;28;20419;-72
2023/03/01 04:46:13;;;;;;;30.25;27.00;;;-4.30;99.90;;;;;;5055510;23;20041;-72
2023/03/01 04:48:43;;;;;;;31.25;27.98;;;-4.30;99.90;;;;;;5029879;28;20052;-71
2023/03/01 04:51:13;;;;;;;30.63;27.33;;;-4.50;99.90;;;;;;5048763;28;20037;-71
2023/03/01 04:53:41;;;;;;;33.20;29.40;;;-4.70;99.90;;;;;;5039623;28;20093;-71
2023/03/01 04:56:08;;;;;;;32.92;29.45;;;-4.80;99.90;;;;;;5056560;28;20288;-72
2023/03/01 04:58:35;;;;;;;33.10;29.63;;;-5.00;99.90;;;;;;5039812;28;20112;-72
2023/03/01 05:01:14;;;;;;;32.40;29.15;;;-5.10;99.90;;;;;;5022801;28;20071;-71
2023/03/01 05:03:51;;;;;;;32.28;29.17;;;-5.20;99.90;;;;;;5036500;28;20056;-71
2023/03/01 05:06:19;;;;;;;31.67;28.42;;;-5.00;99.90;;;;;;5039669;28;20366;-70
2023/03/01 05:08:46;;;;;;;37.80;30.65;;;-4.80;99.90;;;;;;5041573;28;20052;-71
2023/03/01 05:11:12;;;;;;;32.00;28.83;;;-5.00;99.90;;;;;;5028632;28;20127;-71
2023/03/01 05:13:40;;;;;;;32.03;28.63;;;-5.00;99.90;;;;;;5045941;28;20048;-72
2023/03/01 05:16:10;;;;;;;32.95;27.90;;;-4.60;99.90;;;;;;5029671;28;20051;-71
2023/03/01 05:18:38;;;;;;;29.30;25.95;;;-4.10;99.90;;;;;;5031566;28;20048;-72
2023/03/01 05:21:15;;;;;;;31.00;27.73;;;-3.80;99.90;;;;;;5030394;28;20041;-73
2023/03/01 05:23:42;;;;;;;30.33;27.23;;;-3.50;99.90;;;;;;5047399;28;20041;-72
2023/03/01 05:26:09;;;;;;;29.83;26.63;;;-3.50;99.90;;;;;;5047841;28;20033;-72
2023/03/01 05:28:51;;;;;;;31.27;28.00;;;-3.50;99.90;;;;;;5045177;28;20514;-72
2023/03/01 05:31:18;;;;;;;31.90;28.50;;;-3.40;99.90;;;;;;5030199;28;20028;-72
2023/03/01 05:33:45;;;;;;;30.60;27.50;;;-3.50;99.90;;;;;;5040071;28;20052;-72
2023/03/01 05:36:12;;;;;;;30.75;27.75;;;-3.50;99.90;;;;;;5032164;28;20451;-72
2023/03/01 05:38:38;;;;;;;31.10;27.83;;;-3.50;99.90;;;;;;5048965;28;20427;-72
2023/03/01 05:41:13;;;;;;;30.15;27.00;;;-3.50;99.90;;;;;;5030961;28;20158;-72
2023/03/01 05:43:43;;;;;;;31.52;28.50;;;-3.50;99.90;;;;;;5048434;28;20095;-72
2023/03/01 05:46:12;;;;;;;29.45;26.58;;;-3.50;99.90;;;;;;5047984;28;20078;-71
2023/03/01 05:48:38;;;;;;;30.83;27.60;;;-3.50;99.90;;;;;;5029960;28;20149;-73
2023/03/01 05:51:06;;;;;;;31.42;27.20;;;-3.60;99.90;;;;;;5031372;28;20056;-73
2023/03/01 05:53:32;;;;;;;30.27;26.58;;;-3.60;99.90;;;;;;5029853;28;20055;-73
2023/03/01 05:56:00;;;;;;;29.33;26.42;;;-3.60;99.90;;;;;;5030013;28;20346;-73
2023/03/01 05:58:26;;;;;;;30.58;27.50;;;-3.60;99.90;;;;;;5031044;28;20039;-73
2023/03/01 06:00:54;;;;;;;30.25;27.45;;;-3.50;99.90;;;;;;5011272;28;20045;-73
2023/03/01 06:03:22;;;;;;;31.88;28.52;;;-3.50;99.90;;;;;;5049369;28;20446;-73
2023/03/01 06:05:49;;;;;;;34.03;28.00;;;-3.50;99.90;;;;;;5028904;28;20071;-73
2023/03/01 06:08:16;;;;;;;31.30;27.40;;;-3.50;99.90;;;;;;5050329;28;20403;-73
2023/03/01 06:10:43;;;;;;;32.05;26.92;;;-3.50;99.90;;;;;;5027699;28;21144;-74
2023/03/01 06:13:10;;;;;;;30.92;27.52;;;-3.50;99.90;;;;;;5051287;28;20044;-73
2023/03/01 06:15:36;;;;;;;29.55;26.80;;;-3.50;99.90;;;;;;5047553;28;20036;-73
2023/03/01 06:18:03;;;;;;;30.13;27.17;;;-3.50;99.90;;;;;;5043085;28;20052;-73
2023/03/01 06:20:30;;;;;;;33.05;27.50;;;-3.60;99.90;;;;;;5013348;28;20157;-73
2023/03/01 06:22:57;;;;;;;29.83;26.80;;;-3.70;99.90;;;;;;5029178;28;20048;-73
2023/03/01 06:25:26;;;;;;;33.30;30.20;;;-3.70;99.90;;;;;;5049691;28;20036;-74
2023/03/01 06:27:53;;;;;;;34.35;30.88;;;-3.70;99.90;;;;;;5029990;28;20455;-74
2023/03/01 06:30:22;;;;;;;33.55;30.08;;;-3.70;99.90;;;;;;5051077;28;20059;-74
2023/03/01 06:32:50;;;;;;;35.50;32.10;;;-3.80;99.90;;;;;;5032857;28;20495;-74
2023/03/01 06:35:18;;;;;;;33.25;30.23;;;-3.80;99.90;;;;;;5034590;28;20029;-74
2023/03/01 06:37:47;;;;;;;34.13;31.10;;;-3.70;99.90;;;;;;5033676;28;20635;-73
2023/03/01 06:40:14;;;;;;;34.10;31.00;;;-3.60;99.90;;;;;;5027445;28;20051;-73
2023/03/01 06:42:43;;;;;;;35.33;31.73;;;-3.40;99.90;;;;;;5052898;28;20066;-73
2023/03/01 06:45:11;;;;;;;33.03;30.08;;;-3.30;99.90;;;;;;5034830;28;20518;-73
2023/03/01 06:47:38;;;;;;;34.03;30.63;;;-3.30;99.90;;;;;;5053570;28;20029;-71
2023/03/01 06:50:05;;;;;;;35.85;32.28;;;-3.40;99.90;;;;;;5050991;28;20606;-71
2023/03/01 06:52:32;;;;;;;34.45;31.25;;;-3.50;99.90;;;;;;5035121;28;20572;-71
2023/03/01 06:55:00;;;;;;;34.22;30.85;;;-3.40;99.90;;;;;;5033764;28;20132;-72
2023/03/01 06:57:27;;;;;;;35.42;32.13;;;-3.30;99.90;;;;;;5033083;28;20135;-72
2023/03/01 06:59:53;;;;;;;34.88;31.63;;;-3.30;99.90;;;;;;5029365;28;20048;-71
2023/03/01 07:02:20;;;;;;;33.97;30.67;;;-3.10;99.90;;;;;;5052604;28;20155;-73
2023/03/01 07:04:52;;;;;;;35.72;32.55;;;-3.00;99.90;;;;;;5032232;28;20047;-72
2023/03/01 07:07:19;;;;;;;35.75;32.42;;;-2.90;99.90;;;;;;5054081;28;20132;-71
2023/03/01 07:09:48;;;;;;;37.10;33.13;;;-2.90;99.90;;;;;;5030587;28;20158;-72
2023/03/01 07:12:14;;;;;;;35.80;32.78;;;-2.70;99.90;;;;;;5050690;28;20044;-71
2023/03/01 07:14:43;;;;;;;36.17;32.85;;;-2.70;99.90;;;;;;5048653;28;20313;-72
2023/03/01 07:17:10;;;;;;;36.58;33.05;;;-2.60;99.90;;;;;;5051360;28;20850;-72
2023/03/01 07:19:36;;;;;;;36.72;33.38;;;-2.50;99.90;;;;;;5033388;28;20041;-71
2023/03/01 07:22:04;;;;;;;35.30;32.10;;;-2.50;99.90;;;;;;5015131;28;20047;-71
2023/03/01 07:24:30;;;;;;;35.22;32.00;;;-2.30;99.90;;;;;;5043319;28;20048;-72
2023/03/01 07:26:57;;;;;;;36.30;32.90;;;-2.10;99.90;;;;;;5028810;28;20115;-73
2023/03/01 07:29:24;;;;;;;38.22;35.10;;;-2.00;99.90;;;;;;5072151;28;20032;-72
2023/03/01 07:31:50;;;;;;;38.92;35.58;;;-1.80;99.90;;;;;;5054458;28;20493;-73
2023/03/01 07:34:17;;;;;;;39.58;36.10;;;-1.70;99.90;;;;;;5047158;28;20252;-71
2023/03/01 07:36:45;;;;;;;37.88;34.53;;;-1.60;99.90;;;;;;5044308;28;20036;-72
2023/03/01 07:39:11;;;;;;;37.08;33.78;;;-1.40;99.90;;;;;;5048811;28;20337;-72
2023/03/01 07:41:38;;;;;;;39.85;36.28;;;-1.40;99.90;;;;;;5030868;28;20051;-72
2023/03/01 07:44:05;;;;;;;39.53;35.70;;;-1.30;99.90;;;;;;5030454;28;20050;-72
2023/03/01 07:46:32;;;;;;;40.00;36.25;;;-1.40;99.90;;;;;;5024746;28;20301;-72
2023/03/01 07:48:59;;;;;;;40.35;36.88;;;-1.30;99.90;;;;;;5027905;28;20040;-73
2023/03/01 07:51:25;;;;;;;39.92;36.25;;;-1.30;99.90;;;;;;5030867;28;20040;-74
2023/03/01 07:53:52;;;;;;;39.85;36.33;;;-1.20;99.90;;;;;;5027190;28;20351;-71
2023/03/01 07:56:20;;;;;;;39.28;36.05;;;-1.00;99.90;;;;;;5027189;28;20045;-72
2023/03/01 07:58:47;;;;;;;40.47;36.72;;;-1.00;99.90;;;;;;5029804;28;20045;-73
2023/03/01 08:01:19;;;;;;;38.67;35.30;;;-0.80;99.90;;;;;;5031058;28;20044;-74
2023/03/01 08:03:47;;;;;;;39.53;36.10;;;-0.60;99.90;;;;;;5029199;28;20041;-72
2023/03/01 08:06:16;;;;;;;39.05;35.67;;;-0.60;99.90;;;;;;5033609;28;20069;-73
2023/03/01 08:08:43;;;;;;;37.60;34.40;;;-0.50;99.90;;;;;;5034099;28;20041;-74
2023/03/01 08:11:12;;;;;;;37.83;34.83;;;-0.50;99.90;;;;;;5049233;28;20491;-73
2023/03/01 08:13:39;;;;;;;38.17;35.08;;;-0.30;99.90;;;;;;5029806;28;20045;-73
2023/03/01 08:16:10;;;;;;;39.90;36.33;;;-0.30;99.90;;;;;;5030007;28;20045;-72
2023/03/01 08:18:37;;;;;;;39.60;36.35;;;-0.10;99.90;;;;;;5038386;28;20047;-72
2023/03/01 08:21:15;;;;;;;41.08;37.55;;;0.00;99.90;;;;;;5028501;28;20260;-73
2023/03/01 08:23:43;;;;;;;42.05;38.33;;;0.20;99.90;;;;;;5027732;28;20053;-72
2023/03/01 08:26:11;;;;;;;41.42;38.08;;;0.30;99.90;;;;;;5029821;28;20095;-73
2023/03/01 08:28:39;;;;;;;43.05;39.83;;;0.40;99.90;;;;;;5057655;28;20049;-74
2023/03/01 08:31:22;;;;;;;41.50;38.05;;;0.80;99.90;;;;;;5028517;28;20132;-72
2023/03/01 08:33:54;;;;;;;43.10;39.70;;;1.10;99.90;;;;;;5028056;28;20525;-72
2023/03/01 08:36:26;;;;;;;44.53;41.42;;;1.10;99.90;;;;;;5026827;28;20080;-72
2023/03/01 08:38:53;;;;;;;46.83;43.25;;;1.20;99.90;;;;;;5031972;28;20064;-72
2023/03/01 08:41:20;;;;;;;46.40;43.05;;;1.10;99.90;;;;;;5029836;28;20466;-71
2023/03/01 08:43:47;;;;;;;45.22;41.97;;;1.30;99.90;;;;;;5026178;28;20511;-71
2023/03/01 08:46:14;;;;;;;45.47;41.85;;;1.30;99.90;;;;;;5043343;28;20060;-72
2023/03/01 08:48:42;;;;;;;42.85;39.67;;;1.20;99.90;;;;;;5032801;28;20235;-71
2023/03/01 08:51:11;;;;;;;45.30;42.03;;;1.20;99.90;;;;;;5034264;28;20127;-72
2023/03/01 08:53:38;;;;;;;44.78;40.88;;;1.30;99.90;;;;;;5052091;28;20040;-72
2023/03/01 08:56:05;;;;;;;45.90;42.45;;;1.60;99.90;;;;;;5030738;28;20036;-73
2023/03/01 08:58:32;;;;;;;44.58;41.25;;;1.80;99.90;;;;;;5034747;28;20052;-73
2023/03/01 09:01:00;;;;;;;45.35;42.08;;;2.20;99.90;;;;;;5051700;28;20048;-72
2023/03/01 09:03:27;;;;;;;38.70;35.22;;;2.40;99.90;;;;;;5054423;28;20556;-72
2023/03/01 09:06:00;;;;;;;37.25;34.15;;;2.10;99.90;;;;;;5031319;28;20075;-73
2023/03/01 09:08:27;;;;;;;38.80;35.33;;;2.00;99.90;;;;;;5053602;28;20037;-72
2023/03/01 09:10:53;;;;;;;37.53;34.72;;;2.20;99.90;;;;;;5031979;28;20048;-72
2023/03/01 09:13:20;;;;;;;38.70;35.60;;;2.30;99.90;;;;;;5035138;28;20044;-73
2023/03/01 09:15:47;;;;;;;38.10;35.05;;;2.40;99.90;;;;;;5032088;28;20047;-72
2023/03/01 09:18:14;;;;;;;37.90;35.00;;;2.70;99.90;;;;;;5020203;28;20076;-72
2023/03/01 09:20:41;;;;;;;39.40;36.25;;;3.10;99.90;;;;;;5019354;28;20044;-73
2023/03/01 09:23:08;;;;;;;41.10;37.95;;;3.10;99.90;;;;;;5033978;28;20320;-73
2023/03/01 09:25:35;;;;;;;39.15;36.25;;;2.70;99.90;;;;;;5051264;28;20464;-73
2023/03/01 09:28:01;;;;;;;40.10;36.85;;;2.50;99.90;;;;;;5046869;28;20088;-73
2023/03/01 09:30:28;;;;;;;40.95;37.75;;;2.60;99.90;;;;;;5033662;28;20397;-74
2023/03/01 09:32:57;;;;;;;44.47;41.22;;;2.70;99.90;;;;;;5032159;28;20041;-73
2023/03/01 09:35:23;;;;;;;43.60;40.20;;;2.90;99.90;;;;;;5029583;28;20040;-73
2023/03/01 09:37:51;;;;;;;42.03;38.90;;;2.80;99.90;;;;;;5031025;28;20608;-73
2023/03/01 09:40:22;;;;;;;41.97;38.78;;;2.40;99.90;;;;;;5052323;28;20040;-73
2023/03/01 09:42:55;;;;;;;43.05;39.80;;;2.80;99.90;;;;;;5031374;28;20052;-73
2023/03/01 09:45:38;;;;;;;43.90;40.63;;;2.80;99.90;;;;;;5012453;28;20530;-73
2023/03/01 09:48:18;;;;;;;41.75;38.65;;;3.20;99.90;;;;;;5040346;28;20611;-73
2023/03/01 09:50:48;;;;;;;41.97;38.72;;;3.30;99.90;;;;;;5029451;28;20060;-73
2023/03/01 09:53:18;;;;;;;41.67;38.38;;;3.70;99.90;;;;;;5043423;28;20044;-72
2023/03/01 09:55:48;;;;;;;44.83;41.53;;;3.10;99.90;;;;;;5025317;28;20041;-73
2023/03/01 09:58:40;;;;;;;43.38;40.00;;;2.70;99.90;;;;;;5044908;28;20037;-72
2023/03/01 10:01:35;;;;;;;41.55;38.40;;;2.80;99.90;;;;;;5027357;28;20041;-73
2023/03/01 10:04:19;;;;;;;43.10;39.90;;;2.90;99.90;;;;;;5029112;28;20051;-72
2023/03/01 10:07:09;;;;;;;42.60;39.28;;;3.20;99.90;;;;;;5031712;28;20040;-72
2023/03/01 10:09:39;;;;;;;39.65;36.78;;;3.10;99.90;;;;;;5035051;28;20043;-72
2023/03/01 10:12:16;;;;;;;41.08;38.17;;;2.70;99.90;;;;;;5031036;28;20348;-72
2023/03/01 10:14:58;;;;;;;41.38;38.20;;;2.90;99.90;;;;;;5035001;28;20044;-73
2023/03/01 10:17:51;;;;;;;42.20;38.88;;;3.50;99.90;;;;;;5014269;28;20041;-73
2023/03/01 10:20:21;;;;;;;41.60;38.65;;;3.80;99.90;;;;;;5032133;28;20045;-73
2023/03/01 10:22:52;;;;;;;42.65;39.60;;;4.10;99.90;;;;;;5031190;28;20091;-72
2023/03/01 10:25:40;;;;;;;44.35;40.75;;;3.70;99.90;;;;;;5026936;28;20389;-72
2023/03/01 10:28:29;;;;;;;43.43;40.33;;;3.40;99.90;;;;;;5030888;28;20109;-72
2023/03/01 10:30:58;;;;;;;48.85;45.28;;;3.50;99.90;;;;;;5012281;28;20040;-72
2023/03/01 10:33:32;;;;;;;50.08;46.38;;;3.60;99.90;;;;;;5032651;28;20222;-72
2023/03/01 10:35:58;;;;;;;49.42;45.70;;;3.40;99.90;;;;;;5030372;28;20036;-74
2023/03/01 10:38:25;;;;;;;48.33;44.95;;;3.40;99.90;;;;;;5032729;28;20458;-73
2023/03/01 10:41:12;;;;;;;49.08;45.63;;;3.60;99.90;;;;;;5030982;28;20041;-72
2023/03/01 10:43:54;;;;;;;51.53;47.83;;;4.10;99.90;;;;;;5033237;28;20041;-72
2023/03/01 10:46:31;;;;;;;50.05;46.88;;;3.80;99.90;;;;;;5045037;28;20407;-72
2023/03/01 10:49:21;;;;;;;51.63;48.13;;;3.80;99.90;;;;;;5033824;28;20052;-72
2023/03/01 10:51:52;;;;;;;50.58;47.05;;;3.70;99.90;;;;;;5033559;28;20048;-73
2023/03/01 10:54:29;;;;;;;51.67;48.15;;;3.60;99.90;;;;;;5054793;28;20388;-73
2023/03/01 10:57:01;;;;;;;52.13;48.35;;;3.70;99.90;;;;;;5032319;28;20387;-73
2023/03/01 10:59:34;;;;;;;51.63;47.88;;;4.20;99.90;;;;;;5038027;28;20072;-72
2023/03/01 11:02:28;;;;;;;50.50;47.05;;;4.30;99.90;;;;;;5029306;28;20036;-72
2023/03/01 11:05:16;;;;;;;48.78;44.90;;;4.30;99.90;;;;;;5047675;28;20472;-72
2023/03/01 11:07:53;;;;;;;48.08;44.67;;;4.50;99.90;;;;;;5024231;28;20055;-72
2023/03/01 11:10:32;;;;;;;49.08;45.50;;;4.50;99.90;;;;;;5054476;28;20114;-73
2023/03/01 11:13:17;;;;;;;50.20;46.50;;;4.80;99.90;;;;;;5052616;28;20045;-73
2023/03/01 11:16:10;;;;;;;50.65;47.00;;;5.00;99.90;;;;;;5035131;28;20129;-73
2023/03/01 11:18:36;;;;;;;47.53;44.33;;;5.10;99.90;;;;;;5014249;28;20430;-72
2023/03/01 11:21:15;;;;;;;48.53;44.85;;;4.90;99.90;;;;;;5050467;28;20313;-72
2023/03/01 11:23:45;;;;;;;51.75;47.80;;;4.30;99.90;;;;;;5033410;28;20063;-72
2023/03/01 11:26:15;;;;;;;48.55;44.97;;;4.20;99.90;;;;;;5044741;28;20041;-71
2023/03/01 11:28:44;;;;;;;51.50;47.75;;;4.60;99.90;;;;;;5032197;28;20156;-72
2023/03/01 11:31:12;;;;;;;49.55;46.00;;;5.00;99.90;;;;;;5052527;28;20035;-72
2023/03/01 11:34:02;;;;;;;47.60;44.15;;;4.70;99.90;;;;;;5051534;28;20143;-74
2023/03/01 11:36:54;;;;;;;49.13;45.72;;;4.60;99.90;;;;;;5049371;28;20050;-72
2023/03/01 11:39:35;;;;;;;47.45;43.90;;;4.60;99.90;;;;;;5058812;28;20132;-73
2023/03/01 11:42:15;;;;;;;49.80;46.50;;;4.70;99.90;;;;;;5039535;28;20048;-72
2023/03/01 11:44:47;;;;;;;49.33;45.97;;;4.80;99.90;;;;;;5036178;28;20094;-72
2023/03/01 11:47:49;;;;;;;49.55;45.88;;;5.00;99.90;;;;;;5033674;28;20064;-75
2023/03/01 11:50:20;;;;;;;50.15;46.75;;;4.70;99.90;;;;;;5032878;28;20045;-71
2023/03/01 11:53:05;;;;;;;49.35;45.88;;;4.70;99.90;;;;;;5032261;28;20037;-72
2023/03/01 11:55:50;;;;;;;49.53;45.88;;;5.10;99.90;;;;;;5026335;28;20103;-72
2023/03/01 11:58:45;;;;;;;49.67;46.20;;;4.90;99.90;;;;;;5031876;28;20594;-71
2023/03/01 12:01:12;;;;;;;47.67;44.38;;;4.80;99.90;;;;;;5031440;28;20106;-74
2023/03/01 12:03:45;;;;;;;47.47;44.00;;;4.90;99.90;;;;;;5032625;28;20299;-74
2023/03/01 12:06:23;;;;;;;48.47;45.25;;;4.80;99.90;;;;;;5029697;28;20052;-74
2023/03/01 12:09:01;;;;;;;47.13;43.90;;;4.90;99.90;;;;;;5029743;28;20040;-71
2023/03/01 12:11:40;;;;;;;45.67;42.13;;;5.20;99.90;;;;;;5033110;28;20059;-71
2023/03/01 12:14:26;;;;;;;48.60;45.22;;;5.20;99.90;;;;;;5029986;28;20829;-71
2023/03/01 12:17:08;;;;;;;49.50;45.78;;;5.00;99.90;;;;;;5042549;28;20048;-71
2023/03/01 12:19:54;;;;;;;46.95;43.75;;;5.00;99.90;;;;;;5033382;28;20107;-71
2023/03/01 12:22:39;;;;;;;49.78;46.17;;;5.20;99.90;;;;;;5032086;28;20045;-71
2023/03/01 12:25:28;;;;;;;;;;;5.40;99.90;;;;;;5030204;28;20426;-71
2023/03/01 12:28:32;;;;;;;48.83;45.17;;;5.40;99.90;;;;;;5024828;28;20096;-72
2023/03/01 12:31:20;;;;;;;47.97;44.50;;;5.80;99.90;;;;;;5028081;28;20061;-71
2023/03/01 12:34:24;;;;;;;48.83;45.40;;;5.50;99.90;;;;;;5030309;28;20045;-71
2023/03/01 12:37:18;;;;;;;48.67;45.28;;;5.20;99.90;;;;;;5011317;28;20065;-71
2023/03/01 12:40:13;;;;;;;48.08;44.63;;;5.10;99.90;;;;;;5034049;28;20048;-71
2023/03/01 12:43:34;;;;;;;46.85;43.38;;;5.40;99.90;;;;;;5031519;28;20274;-71
2023/03/01 12:46:06;;;;;;;49.53;46.15;;;5.60;99.90;;;;;;4952327;28;20096;-72
2023/03/01 12:48:42;;;;;;;49.25;45.85;;;4.90;99.90;;;;;;4974983;28;20394;-72
2023/03/01 12:51:13;;;;;;;48.65;45.25;;;4.90;99.90;;;;;;5018193;28;20037;-72
2023/03/01 12:53:48;;;;;;;48.72;45.40;;;5.00;99.90;;;;;;5030768;28;20392;-72
2023/03/01 12:56:17;;;;;;;;;;;5.20;99.90;;;;;;5033154;28;20067;-72